Time;durP1;ratioP1;P1;durP2;ratioP2;P2;SDS_P1;SDS_P2;PMS_P1;PMS_P2;Temp;Humidity;BMP_temperature;BMP_pressure;BME280_temperature;BME280_humidity;BME280_pressure;Samples;Min_cycle;Max_cycle;Signal;HPM_P1;HPM_P2
2021/05/13 00:01:06;;;;;;;9.57;3.72;;;;;;;9.60;100.00;100968.03;3612332;39;20058;-62
2021/05/13 00:03:33;;;;;;;9.77;3.47;;;;;;;9.55;100.00;100962.16;3613837;39;20043;-61
2021/05/13 00:05:59;;;;;;;12.98;3.63;;;;;;;9.53;100.00;100964.16;3614787;39;20037;-62
2021/05/13 00:08:25;;;;;;;8.02;4.07;;;;;;;9.30;100.00;100958.81;3612536;39;20051;-62
2021/05/13 00:11:01;;;;;;;10.77;3.75;;;;;;;9.31;100.00;100952.47;3614294;39;20049;-61
2021/05/13 00:13:27;;;;;;;10.38;3.70;;;;;;;9.37;100.00;100957.34;3613251;39;20043;-61
2021/05/13 00:15:53;;;;;;;11.77;3.78;;;;;;;9.37;100.00;100954.66;3614135;39;20317;-61
2021/05/13 00:18:19;;;;;;;10.30;3.28;;;;;;;9.41;100.00;100950.72;3613223;39;20054;-61
2021/05/13 00:20:56;;;;;;;9.07;3.10;;;;;;;9.32;100.00;100951.50;3627613;22;20057;-62
2021/05/13 00:23:23;;;;;;;12.93;3.55;;;;;;;9.15;100.00;100957.38;3571706;40;20115;-61
2021/05/13 00:25:51;;;;;;;9.57;3.70;;;;;;;9.08;100.00;100955.22;3574750;40;20053;-61
2021/05/13 00:28:19;;;;;;;9.05;3.65;;;;;;;9.14;100.00;100953.00;3574667;40;20308;-64
2021/05/13 00:30:44;;;;;;;9.93;3.63;;;;;;;9.18;100.00;100951.75;3574729;40;20390;-62
2021/05/13 00:33:11;;;;;;;9.77;4.15;;;;;;;9.07;100.00;100947.28;3575482;40;20053;-61
2021/05/13 00:35:37;;;;;;;7.10;3.65;;;;;;;9.03;100.00;100951.19;3575407;40;20053;-61
2021/05/13 00:38:03;;;;;;;8.23;3.97;;;;;;;9.14;100.00;100942.25;3629857;22;20059;-60
2021/05/13 00:40:29;;;;;;;16.92;3.80;;;;;;;9.03;100.00;100943.97;3582579;40;20037;-63
2021/05/13 00:42:56;;;;;;;10.60;3.28;;;;;;;9.00;100.00;100946.91;3584077;40;20080;-61
2021/05/13 00:45:23;;;;;;;11.05;4.15;;;;;;;8.89;100.00;100941.53;3582456;40;20072;-62
2021/05/13 00:48:02;;;;;;;12.57;3.60;;;;;;;8.88;100.00;100943.38;3584929;40;20104;-61
2021/05/13 00:50:29;;;;;;;10.45;3.60;;;;;;;8.82;100.00;100937.63;3583535;40;20138;-61
2021/05/13 00:52:55;;;;;;;10.57;3.88;;;;;;;8.84;100.00;100935.69;3581458;40;20422;-63
2021/05/13 00:55:22;;;;;;;8.57;3.63;;;;;;;8.80;100.00;100934.22;3591214;39;20052;-62
2021/05/13 00:57:51;;;;;;;11.45;3.28;;;;;;;8.84;100.00;100933.84;3594475;39;20040;-61
2021/05/13 01:00:32;;;;;;;10.77;4.25;;;;;;;8.71;100.00;100942.03;3594081;39;20063;-60
2021/05/13 01:03:00;;;;;;;8.55;3.78;;;;;;;8.66;100.00;100938.03;3592518;39;20071;-61
2021/05/13 01:05:27;;;;;;;10.05;3.30;;;;;;;8.61;100.00;100935.69;3592554;39;20433;-61
2021/05/13 01:07:53;;;;;;;9.52;3.75;;;;;;;8.68;100.00;100939.59;3594613;39;20056;-61
2021/05/13 01:12:47;;;;;;;11.02;4.07;;;;;;;8.63;100.00;100933.75;3644135;22;20043;-61
2021/05/13 01:15:22;;;;;;;9.35;3.72;;;;;;;8.61;100.00;100943.72;3608846;39;20317;-61
2021/05/13 01:17:57;;;;;;;10.65;4.03;;;;;;;8.56;100.00;100936.06;3601680;39;20059;-60
2021/05/13 01:20:25;;;;;;;10.13;4.05;;;;;;;8.72;100.00;100933.00;3606491;39;20059;-61
2021/05/13 01:22:52;;;;;;;10.57;4.00;;;;;;;8.72;100.00;100933.00;3609407;39;20104;-61
2021/05/13 01:25:18;;;;;;;8.10;3.50;;;;;;;8.61;100.00;100924.94;3605410;39;20054;-61
2021/05/13 01:27:44;;;;;;;6.65;3.40;;;;;;;8.50;100.00;100927.66;3609763;39;20043;-61
2021/05/13 01:30:12;;;;;;;9.35;3.30;;;;;;;8.49;100.00;100936.66;3610074;39;20055;-61
2021/05/13 01:32:38;;;;;;;7.82;3.90;;;;;;;8.42;100.00;100933.56;3608501;39;20112;-61
2021/05/13 01:35:05;;;;;;;8.70;3.63;;;;;;;8.29;100.00;100935.50;3609808;39;20039;-61
2021/05/13 01:37:31;;;;;;;6.65;3.90;;;;;;;8.30;100.00;100940.75;3608866;39;20056;-62
2021/05/13 01:39:57;;;;;;;7.78;3.55;;;;;;;8.31;100.00;100931.72;3609377;39;20321;-62
2021/05/13 01:42:23;;;;;;;7.07;3.45;;;;;;;8.27;100.00;100932.09;3609073;39;20313;-60
2021/05/13 01:44:49;;;;;;;8.52;3.30;;;;;;;8.33;100.00;100931.63;3609293;39;20055;-63
2021/05/13 01:47:15;;;;;;;11.32;3.78;;;;;;;8.25;100.00;100927.69;3609076;39;20051;-60
2021/05/13 01:49:41;;;;;;;8.85;3.83;;;;;;;8.22;100.00;100930.63;3609430;39;20035;-61
2021/05/13 01:52:07;;;;;;;11.60;4.28;;;;;;;8.21;100.00;100926.22;3610603;39;20055;-61
2021/05/13 01:54:33;;;;;;;11.00;4.38;;;;;;;8.23;100.00;100931.50;3609452;39;20055;-62
2021/05/13 01:57:04;;;;;;;11.63;4.50;;;;;;;8.21;100.00;100925.38;3610771;39;20083;-60
2021/05/13 01:59:31;;;;;;;8.98;3.75;;;;;;;8.15;100.00;100921.34;3608945;39;20047;-61
2021/05/13 02:01:59;;;;;;;11.27;3.78;;;;;;;8.09;100.00;100920.97;3607131;39;20040;-61
2021/05/13 02:04:25;;;;;;;11.00;4.10;;;;;;;7.91;100.00;100918.75;3609403;39;20278;-62
2021/05/13 02:06:51;;;;;;;8.27;4.18;;;;;;;8.00;100.00;100925.22;3610715;39;20036;-61
2021/05/13 02:09:17;;;;;;;10.77;4.15;;;;;;;7.98;100.00;100922.66;3609972;39;20079;-61
2021/05/13 02:11:43;;;;;;;7.63;3.95;;;;;;;8.09;100.00;100918.31;3609835;39;20363;-64
2021/05/13 02:14:09;;;;;;;13.43;4.22;;;;;;;7.98;100.00;100919.97;3609819;39;20498;-62
2021/05/13 02:16:35;;;;;;;11.10;4.40;;;;;;;7.94;100.00;100923.84;3607370;39;20039;-61
2021/05/13 02:19:01;;;;;;;10.70;4.30;;;;;;;7.89;100.00;100912.63;3609173;39;20096;-61
2021/05/13 02:21:27;;;;;;;8.70;4.15;;;;;;;7.73;100.00;100918.31;3609349;39;20054;-61
2021/05/13 02:23:53;;;;;;;8.05;4.30;;;;;;;7.56;100.00;100922.25;3610070;39;20403;-61
2021/05/13 02:26:20;;;;;;;8.40;4.10;;;;;;;7.43;100.00;100918.78;3604221;39;20440;-61
2021/05/13 02:28:47;;;;;;;9.93;4.15;;;;;;;7.37;100.00;100912.06;3608198;39;20046;-62
2021/05/13 02:31:13;;;;;;;12.80;5.35;;;;;;;7.31;100.00;100913.38;3608780;39;20051;-63
2021/05/13 02:33:39;;;;;;;9.32;4.43;;;;;;;7.42;100.00;100914.41;3608992;39;20047;-61
2021/05/13 02:36:07;;;;;;;14.55;5.15;;;;;;;7.40;100.00;100914.50;3608545;39;20036;-61
2021/05/13 02:38:33;;;;;;;8.38;4.57;;;;;;;7.43;100.00;100922.31;3607942;39;20252;-63
2021/05/13 02:40:59;;;;;;;8.95;4.70;;;;;;;7.37;100.00;100907.56;3607355;39;20490;-61
2021/05/13 02:43:25;;;;;;;10.95;3.95;;;;;;;7.33;100.00;100911.44;3608364;39;20060;-61
2021/05/13 02:45:51;;;;;;;10.38;4.05;;;;;;;7.36;100.00;100910.34;3609530;39;20127;-60
2021/05/13 02:48:18;;;;;;;7.28;4.30;;;;;;;7.34;100.00;100918.50;3609405;39;20437;-61
2021/05/13 02:50:44;;;;;;;10.13;4.35;;;;;;;7.26;100.00;100920.91;3609664;39;20321;-62
2021/05/13 02:53:13;;;;;;;10.40;4.40;;;;;;;7.18;100.00;100918.78;3609501;39;20306;-61
2021/05/13 02:55:39;;;;;;;12.60;4.65;;;;;;;7.11;100.00;100922.00;3609821;39;20067;-63
2021/05/13 02:58:05;;;;;;;12.38;4.43;;;;;;;7.13;100.00;100920.09;3610249;39;20058;-61
2021/05/13 03:00:34;;;;;;;9.48;4.32;;;;;;;7.09;100.00;100908.75;3609489;39;20094;-60
2021/05/13 03:03:00;;;;;;;10.43;4.63;;;;;;;7.11;100.00;100911.31;3609120;39;20039;-60
2021/05/13 03:05:27;;;;;;;7.85;4.40;;;;;;;7.17;100.00;100910.88;3609965;39;20079;-60
2021/05/13 03:07:55;;;;;;;10.27;4.85;;;;;;;7.08;100.00;100911.53;3609991;39;20058;-62
2021/05/13 03:10:25;;;;;;;9.57;3.92;;;;;;;7.12;100.00;100918.38;3609867;39;20154;-61
2021/05/13 03:12:53;;;;;;;10.88;4.70;;;;;;;7.10;100.00;100917.66;3609370;39;20313;-60
2021/05/13 03:15:20;;;;;;;12.17;5.10;;;;;;;7.15;100.00;100904.75;3609460;39;20416;-61
2021/05/13 03:17:47;;;;;;;8.88;4.15;;;;;;;7.15;100.00;100905.59;3608766;39;20265;-61
2021/05/13 03:20:16;;;;;;;17.08;5.25;;;;;;;7.25;100.00;100903.13;3608705;39;20090;-60
2021/05/13 03:22:43;;;;;;;7.28;4.10;;;;;;;7.29;100.00;100903.75;3609398;39;20047;-63
2021/05/13 03:25:10;;;;;;;10.13;4.35;;;;;;;7.18;100.00;100901.84;3609643;39;20404;-60
2021/05/13 03:27:44;;;;;;;10.80;4.70;;;;;;;7.14;100.00;100905.72;3609231;39;20379;-60
2021/05/13 03:30:11;;;;;;;11.00;4.30;;;;;;;7.03;100.00;100905.69;3609594;39;21018;-62
2021/05/13 03:32:37;;;;;;;11.43;5.28;;;;;;;6.98;100.00;100901.50;3609170;39;20061;-60
2021/05/13 03:35:04;;;;;;;13.25;5.10;;;;;;;6.98;100.00;100904.19;3609112;39;20080;-61
2021/05/13 03:37:30;;;;;;;9.23;4.47;;;;;;;6.95;100.00;100899.06;3608959;39;20074;-61
2021/05/13 03:39:58;;;;;;;9.40;4.57;;;;;;;6.98;100.00;100901.50;3609264;39;20290;-61
2021/05/13 03:42:24;;;;;;;12.20;4.63;;;;;;;6.95;100.00;100896.38;3609840;39;20109;-61
2021/05/13 03:44:51;;;;;;;7.32;4.22;;;;;;;6.97;100.00;100891.75;3608656;39;20051;-61
2021/05/13 03:47:17;;;;;;;8.30;4.30;;;;;;;6.88;100.00;100884.41;3609551;39;20434;-62
2021/05/13 03:49:43;;;;;;;11.98;4.57;;;;;;;6.75;100.00;100888.94;3609163;39;20107;-61
2021/05/13 03:52:09;;;;;;;10.52;4.60;;;;;;;6.77;100.00;100889.69;3608679;39;20043;-61
2021/05/13 03:54:35;;;;;;;9.75;4.70;;;;;;;6.67;100.00;100884.16;3609320;39;20075;-61
2021/05/13 03:57:02;;;;;;;9.25;4.75;;;;;;;6.69;100.00;100884.03;3609184;39;20051;-61
2021/05/13 03:59:33;;;;;;;15.18;5.20;;;;;;;6.66;100.00;100877.94;3609415;39;20414;-61
2021/05/13 04:02:06;;;;;;;10.48;5.18;;;;;;;6.62;100.00;100879.13;3608156;39;20141;-63
2021/05/13 04:04:33;;;;;;;9.02;4.95;;;;;;;6.68;100.00;100883.16;3608576;39;20043;-61
2021/05/13 04:06:59;;;;;;;12.25;5.68;;;;;;;6.64;100.00;100881.66;3609901;39;20042;-61
2021/05/13 04:09:25;;;;;;;12.73;5.15;;;;;;;6.72;100.00;100883.81;3607736;39;21093;-61
2021/05/13 04:11:53;;;;;;;14.07;5.75;;;;;;;6.68;100.00;100880.50;3609748;39;20518;-61
2021/05/13 04:14:21;;;;;;;11.75;5.30;;;;;;;6.69;100.00;100876.88;3607917;39;20418;-61
2021/05/13 04:16:52;;;;;;;11.23;5.55;;;;;;;6.67;100.00;100886.84;3610053;39;20043;-61
2021/05/13 04:19:18;;;;;;;11.02;5.10;;;;;;;6.76;100.00;100891.50;3609800;39;20414;-63
2021/05/13 04:21:45;;;;;;;11.48;4.88;;;;;;;6.84;100.00;100893.63;3607828;39;20040;-61
2021/05/13 04:24:11;;;;;;;10.40;4.75;;;;;;;6.83;100.00;100886.56;3608530;39;20398;-60
2021/05/13 04:26:39;;;;;;;11.52;5.15;;;;;;;6.97;100.00;100883.72;3605497;39;20140;-62
2021/05/13 04:29:06;;;;;;;9.95;4.93;;;;;;;7.05;100.00;100895.69;3609886;39;20283;-62
2021/05/13 04:31:32;;;;;;;9.68;5.53;;;;;;;6.97;100.00;100890.91;3608671;39;20043;-61
2021/05/13 04:33:59;;;;;;;10.90;5.38;;;;;;;7.03;100.00;100890.47;3608143;39;20132;-60
2021/05/13 04:36:24;;;;;;;10.43;4.93;;;;;;;7.22;100.00;100876.59;3608474;39;20055;-61
2021/05/13 04:38:51;;;;;;;12.40;6.00;;;;;;;7.13;100.00;100875.44;3609733;39;20054;-59
2021/05/13 04:41:17;;;;;;;8.25;4.43;;;;;;;7.23;100.00;100878.28;3609120;39;20585;-61
2021/05/13 04:43:43;;;;;;;13.93;5.53;;;;;;;7.31;100.00;100881.25;3609155;39;20050;-61
2021/05/13 04:46:09;;;;;;;11.93;5.95;;;;;;;7.36;100.00;100876.41;3608238;39;20052;-61
2021/05/13 04:48:52;;;;;;;13.98;5.85;;;;;;;7.57;100.00;100874.88;3597335;39;20093;-61
2021/05/13 04:51:19;;;;;;;11.93;5.75;;;;;;;7.62;100.00;100872.72;3591106;39;20048;-61
2021/05/13 04:53:47;;;;;;;10.25;5.32;;;;;;;7.70;100.00;100862.28;3606303;39;20059;-61
2021/05/13 04:56:13;;;;;;;9.43;5.13;;;;;;;7.87;100.00;100860.97;3607748;39;20047;-62
2021/05/13 04:58:39;;;;;;;9.43;6.32;;;;;;;7.68;100.00;100858.88;3606307;39;20051;-61
2021/05/13 05:01:05;;;;;;;13.30;6.00;;;;;;;7.99;100.00;100862.69;3608341;39;20047;-62
2021/05/13 05:03:31;;;;;;;8.20;5.35;;;;;;;8.11;100.00;100862.72;3607823;39;20044;-63
2021/05/13 05:05:58;;;;;;;9.40;5.80;;;;;;;8.09;100.00;100859.31;3608820;39;20039;-61
2021/05/13 05:08:24;;;;;;;9.85;5.72;;;;;;;8.23;100.00;100848.38;3609209;39;20050;-60
2021/05/13 05:10:50;;;;;;;12.32;5.70;;;;;;;8.45;100.00;100847.56;3608288;39;20055;-61
2021/05/13 05:13:16;;;;;;;9.75;5.28;;;;;;;8.35;100.00;100844.72;3609161;39;20055;-61
2021/05/13 05:15:42;;;;;;;10.25;5.68;;;;;;;8.47;100.00;100847.44;3610344;39;20030;-62
2021/05/13 05:18:08;;;;;;;8.18;4.90;;;;;;;8.68;100.00;100845.69;3609672;39;20031;-61
2021/05/13 05:20:34;;;;;;;6.75;4.53;;;;;;;8.80;100.00;100837.63;3609957;39;20059;-61
2021/05/13 05:23:00;;;;;;;10.27;5.97;;;;;;;8.97;100.00;100841.63;3609506;39;20031;-60
2021/05/13 05:25:26;;;;;;;9.25;5.45;;;;;;;9.16;100.00;100840.91;3611087;39;20051;-61
2021/05/13 05:27:52;;;;;;;11.82;5.63;;;;;;;9.22;100.00;100840.44;3610921;39;20078;-61
2021/05/13 05:30:19;;;;;;;11.50;6.40;;;;;;;9.28;100.00;100829.19;3609564;39;20375;-61
2021/05/13 05:32:45;;;;;;;11.45;7.20;;;;;;;9.49;100.00;100836.41;3609992;39;20042;-61
2021/05/13 05:35:11;;;;;;;9.90;6.00;;;;;;;9.57;100.00;100825.84;3610869;39;20043;-61
2021/05/13 05:37:39;;;;;;;12.50;7.00;;;;;;;9.61;100.00;100827.28;3610051;39;20114;-61
2021/05/13 05:40:08;;;;;;;12.35;6.88;;;;;;;9.75;100.00;100829.66;3610235;39;20055;-61
2021/05/13 05:42:34;;;;;;;12.98;7.20;;;;;;;9.91;100.00;100828.31;3607360;39;20413;-62
2021/05/13 05:45:00;;;;;;;12.70;8.07;;;;;;;10.06;100.00;100823.47;3609079;39;20043;-62
2021/05/13 05:47:26;;;;;;;10.40;6.75;;;;;;;10.29;100.00;100833.06;3609056;39;20032;-60
2021/05/13 05:49:51;;;;;;;15.25;7.10;;;;;;;10.37;100.00;100829.72;3610059;39;20042;-60
2021/05/13 05:52:17;;;;;;;13.77;7.15;;;;;;;10.58;100.00;100831.50;3610218;39;20395;-60
2021/05/13 05:54:43;;;;;;;12.07;6.22;;;;;;;10.58;100.00;100831.50;3610577;39;20408;-61
2021/05/13 05:57:10;;;;;;;13.98;6.88;;;;;;;10.74;100.00;100829.13;3610440;39;20079;-60
2021/05/13 05:59:36;;;;;;;14.65;7.40;;;;;;;10.84;100.00;100829.16;3609524;39;20128;-63
2021/05/13 06:02:02;;;;;;;11.05;7.10;;;;;;;10.85;100.00;100822.78;3609059;39;20036;-61
2021/05/13 06:04:28;;;;;;;9.95;6.57;;;;;;;10.82;100.00;100823.94;3610447;39;20059;-63
2021/05/13 06:06:54;;;;;;;11.18;6.35;;;;;;;10.95;100.00;100823.66;3611570;39;20054;-62
2021/05/13 06:09:20;;;;;;;10.27;6.90;;;;;;;10.97;100.00;100821.69;3610397;39;20143;-61
2021/05/13 06:11:46;;;;;;;13.18;7.63;;;;;;;11.09;100.00;100825.09;3609359;39;20370;-61
2021/05/13 06:14:12;;;;;;;11.73;7.70;;;;;;;11.11;100.00;100822.25;3609177;39;20363;-60
2021/05/13 06:16:38;;;;;;;14.82;7.53;;;;;;;11.32;100.00;100814.03;3610132;39;20051;-60
2021/05/13 06:19:04;;;;;;;10.43;7.18;;;;;;;11.68;100.00;100806.22;3608171;39;20123;-61
2021/05/13 06:21:30;;;;;;;10.77;7.40;;;;;;;11.97;100.00;100808.88;3603297;39;20469;-61
2021/05/13 06:23:59;;;;;;;11.55;7.03;;;;;;;12.39;100.00;100816.50;3606711;39;20059;-60
2021/05/13 06:26:27;;;;;;;9.32;6.90;;;;;;;12.45;100.00;100806.97;3606461;39;20059;-61
2021/05/13 06:28:53;;;;;;;11.70;7.15;;;;;;;12.43;100.00;100814.38;3610943;39;20090;-60
2021/05/13 06:31:20;;;;;;;13.32;8.32;;;;;;;12.42;100.00;100809.97;3607852;39;20128;-61
2021/05/13 06:33:46;;;;;;;12.30;7.72;;;;;;;12.52;100.00;100818.88;3607482;39;20047;-61
2021/05/13 06:36:12;;;;;;;11.50;8.15;;;;;;;12.51;100.00;100808.22;3608774;39;20095;-63
2021/05/13 06:38:38;;;;;;;18.25;8.32;;;;;;;12.38;100.00;100808.56;3609660;39;20054;-61
2021/05/13 06:41:06;;;;;;;11.40;8.02;;;;;;;12.35;100.00;100811.56;3609248;39;20056;-61
2021/05/13 06:43:32;;;;;;;10.10;7.97;;;;;;;12.55;100.00;100802.38;3609569;39;20031;-62
2021/05/13 06:45:58;;;;;;;11.70;7.60;;;;;;;12.54;100.00;100800.66;3610735;39;20398;-61
2021/05/13 06:48:25;;;;;;;11.68;8.13;;;;;;;12.57;100.00;100795.00;3609398;39;20686;-61
2021/05/13 06:50:51;;;;;;;11.32;7.78;;;;;;;12.65;100.00;100804.16;3610226;39;20127;-62
2021/05/13 06:53:17;;;;;;;12.15;8.43;;;;;;;12.84;100.00;100805.88;3608243;39;20406;-61
2021/05/13 06:55:43;;;;;;;12.95;8.63;;;;;;;12.99;100.00;100798.97;3610301;39;20039;-60
2021/05/13 06:58:09;;;;;;;14.52;7.10;;;;;;;13.18;100.00;100792.56;3609692;39;20040;-61
2021/05/13 07:00:35;;;;;;;13.27;8.93;;;;;;;13.05;100.00;100795.66;3609590;39;20059;-61
2021/05/13 07:03:01;;;;;;;10.50;7.93;;;;;;;13.14;100.00;100796.56;3609254;39;20047;-61
2021/05/13 07:05:28;;;;;;;9.70;7.85;;;;;;;13.52;100.00;100793.75;3609484;39;20479;-61
2021/05/13 07:07:54;;;;;;;10.35;7.60;;;;;;;13.56;100.00;100785.16;3609735;39;20058;-61
2021/05/13 07:10:19;;;;;;;12.85;9.20;;;;;;;13.45;100.00;100790.78;3609545;39;20058;-62
2021/05/13 07:12:45;;;;;;;10.38;8.18;;;;;;;13.47;100.00;100792.34;3608648;39;20047;-62
2021/05/13 07:15:12;;;;;;;14.48;9.38;;;;;;;13.76;100.00;100787.66;3609357;39;20054;-61
2021/05/13 07:17:38;;;;;;;13.32;9.70;;;;;;;14.05;100.00;100790.03;3609155;39;20087;-61
2021/05/13 07:20:06;;;;;;;12.70;9.52;;;;;;;14.09;100.00;100795.94;3608198;39;20058;-61
2021/05/13 07:22:33;;;;;;;16.00;9.52;;;;;;;14.28;100.00;100793.03;3609289;39;20054;-63
2021/05/13 07:24:59;;;;;;;12.18;8.95;;;;;;;14.27;100.00;100794.03;3608786;39;20032;-62
2021/05/13 07:27:25;;;;;;;14.52;9.80;;;;;;;14.04;100.00;100801.00;3609110;39;20066;-61
2021/05/13 07:29:51;;;;;;;12.70;10.05;;;;;;;13.95;100.00;100795.53;3609477;39;20047;-61
2021/05/13 07:32:17;;;;;;;12.52;8.93;;;;;;;13.99;100.00;100790.66;3608256;39;20297;-61
2021/05/13 07:34:43;;;;;;;16.92;10.10;;;;;;;14.06;100.00;100790.88;3609090;39;20053;-61
2021/05/13 07:37:08;;;;;;;13.57;9.15;;;;;;;14.44;100.00;100786.84;3608604;39;20047;-63
2021/05/13 07:39:36;;;;;;;11.43;8.43;;;;;;;14.59;100.00;100788.91;3610162;39;20047;-61
2021/05/13 07:42:02;;;;;;;14.70;10.23;;;;;;;14.65;100.00;100783.72;3609807;39;20051;-62
2021/05/13 07:44:28;;;;;;;13.50;9.13;;;;;;;14.81;100.00;100787.47;3609656;39;20298;-62
2021/05/13 07:46:57;;;;;;;15.50;9.00;;;;;;;15.05;100.00;100787.53;3609751;39;20050;-61
2021/05/13 07:49:25;;;;;;;12.48;8.52;;;;;;;15.09;100.00;100787.19;3607192;39;20050;-61
2021/05/13 07:51:51;;;;;;;14.02;8.85;;;;;;;15.17;100.00;100784.50;3608800;39;20334;-61
2021/05/13 07:54:17;;;;;;;9.30;8.10;;;;;;;15.20;100.00;100778.72;3608600;39;20059;-61
2021/05/13 07:56:46;;;;;;;9.68;7.72;;;;;;;15.41;100.00;100775.50;3608490;39;20095;-63
2021/05/13 07:59:12;;;;;;;12.43;8.82;;;;;;;15.15;100.00;100772.94;3609912;39;20047;-60
2021/05/13 08:01:38;;;;;;;12.05;8.88;;;;;;;15.63;100.00;100771.25;3610363;39;20087;-64
2021/05/13 08:04:05;;;;;;;10.20;8.10;;;;;;;15.66;100.00;100768.19;3610450;39;20068;-62
2021/05/13 08:06:30;;;;;;;13.65;8.60;;;;;;;15.71;100.00;100776.69;3610305;39;20506;-62
2021/05/13 08:08:56;;;;;;;10.95;8.32;;;;;;;15.59;100.00;100770.75;3610595;39;20046;-61
2021/05/13 08:11:22;;;;;;;13.20;8.50;;;;;;;15.67;100.00;100780.75;3610049;39;20074;-62
2021/05/13 08:13:49;;;;;;;11.45;8.57;;;;;;;15.37;100.00;100771.44;3610645;39;20384;-61
2021/05/13 08:16:15;;;;;;;15.38;9.40;;;;;;;15.75;100.00;100771.75;3610141;39;20043;-62
2021/05/13 08:18:41;;;;;;;11.10;8.88;;;;;;;16.23;100.00;100775.38;3610511;39;20070;-62
2021/05/13 08:21:07;;;;;;;12.23;8.30;;;;;;;16.22;100.00;100772.84;3609722;39;20052;-64
2021/05/13 08:23:33;;;;;;;11.95;8.27;;;;;;;16.40;100.00;100770.75;3609882;39;20424;-62
2021/05/13 08:25:59;;;;;;;15.30;9.57;;;;;;;16.33;100.00;100780.63;3608247;39;20028;-62
2021/05/13 08:28:25;;;;;;;13.85;9.20;;;;;;;16.02;100.00;100778.69;3607989;39;20047;-62
2021/05/13 08:30:52;;;;;;;12.52;8.93;;;;;;;16.05;100.00;100778.34;3608666;39;20079;-60
2021/05/13 08:33:18;;;;;;;15.82;9.55;;;;;;;16.26;100.00;100775.03;3608116;39;20062;-63
2021/05/13 08:35:44;;;;;;;11.95;8.98;;;;;;;16.49;100.00;100777.00;3607712;39;20083;-61
2021/05/13 08:38:10;;;;;;;12.00;8.77;;;;;;;16.72;100.00;100779.72;3606899;39;20035;-61
2021/05/13 08:40:36;;;;;;;18.70;9.90;;;;;;;16.56;100.00;100774.41;3607654;39;20382;-60
2021/05/13 08:43:03;;;;;;;15.45;10.00;;;;;;;16.61;100.00;100772.84;3607169;39;20559;-62
2021/05/13 08:45:33;;;;;;;12.85;9.15;;;;;;;16.58;100.00;100775.91;3609018;39;20071;-63
2021/05/13 08:48:01;;;;;;;12.93;9.43;;;;;;;16.26;100.00;100775.03;3608914;39;20067;-61
2021/05/13 08:50:28;;;;;;;12.37;9.60;;;;;;;16.09;100.00;100779.69;3610184;39;20046;-63
2021/05/13 08:52:55;;;;;;;15.52;9.52;;;;;;;16.19;100.00;100770.47;3609077;39;20355;-62
2021/05/13 08:55:21;;;;;;;12.30;9.82;;;;;;;16.77;100.00;100769.19;3609383;39;20132;-61
2021/05/13 08:57:47;;;;;;;12.45;9.45;;;;;;;16.49;100.00;100771.56;3610363;39;20047;-62
2021/05/13 09:00:14;;;;;;;12.70;9.40;;;;;;;16.76;100.00;100772.09;3609783;39;20136;-62
2021/05/13 09:02:49;;;;;;;13.77;11.02;;;;;;;16.81;100.00;100767.81;3609585;39;20050;-62
2021/05/13 09:05:16;;;;;;;16.02;10.50;;;;;;;17.18;100.00;100757.19;3609848;39;20073;-63
2021/05/13 09:07:42;;;;;;;15.85;10.75;;;;;;;17.11;100.00;100756.25;3609645;39;20309;-61
2021/05/13 09:10:10;;;;;;;12.70;10.35;;;;;;;17.07;100.00;100761.19;3610481;39;20079;-63
2021/05/13 09:12:39;;;;;;;15.18;10.90;;;;;;;17.03;100.00;100759.84;3609836;39;20397;-61
2021/05/13 09:15:09;;;;;;;18.48;10.77;;;;;;;17.30;100.00;100754.91;3610153;39;20393;-62
2021/05/13 09:17:37;;;;;;;14.00;10.43;;;;;;;17.35;100.00;100752.47;3610871;39;20043;-61
2021/05/13 09:20:05;;;;;;;15.32;10.40;;;;;;;17.49;100.00;100745.38;3609866;39;20186;-62
2021/05/13 09:22:33;;;;;;;13.18;10.05;;;;;;;17.88;100.00;100751.63;3610136;39;20047;-63
2021/05/13 09:25:00;;;;;;;12.30;8.70;;;;;;;18.17;100.00;100746.22;3610158;39;20088;-65
2021/05/13 09:27:30;;;;;;;13.48;9.95;;;;;;;17.96;100.00;100751.56;3609629;39;20080;-61
2021/05/13 09:30:04;;;;;;;15.98;10.73;;;;;;;17.96;100.00;100744.25;3609805;39;20055;-62
2021/05/13 09:32:30;;;;;;;15.40;10.80;;;;;;;18.06;100.00;100749.41;3606878;39;20148;-61
2021/05/13 09:35:05;;;;;;;13.25;9.50;;;;;;;18.12;100.00;100748.66;3610292;39;20063;-61
2021/05/13 09:37:37;;;;;;;12.30;9.65;;;;;;;18.09;100.00;100748.19;3610450;39;20537;-60
2021/05/13 09:40:04;;;;;;;15.38;10.38;;;;;;;18.09;100.00;100749.03;3611277;39;20047;-60
2021/05/13 09:42:30;;;;;;;12.95;9.50;;;;;;;17.73;100.00;100746.19;3611777;39;20061;-61
2021/05/13 09:44:56;;;;;;;14.05;9.75;;;;;;;18.25;100.00;100741.69;3611678;39;20039;-61
2021/05/13 09:50:14;;;;;;;15.18;8.98;;;;;;;18.52;100.00;100730.09;3630110;22;20429;-60
2021/05/13 09:52:47;;;;;;;11.82;9.63;;;;;;;18.19;100.00;100729.69;3602078;39;20039;-64
2021/05/13 09:55:21;;;;;;;13.05;9.60;;;;;;;17.23;100.00;100743.06;3601817;39;20043;-61
2021/05/13 09:57:52;;;;;;;12.80;9.93;;;;;;;17.08;100.00;100734.88;3601911;39;20088;-60
2021/05/13 10:00:49;;;;;;;13.63;10.63;;;;;;;16.95;100.00;100730.03;3600230;39;20044;-60
2021/05/13 10:03:18;;;;;;;14.70;10.35;;;;;;;17.59;100.00;100726.06;3601785;39;20087;-62
2021/05/13 10:05:47;;;;;;;13.88;8.88;;;;;;;17.77;100.00;100726.56;3600256;39;20067;-63
2021/05/13 10:08:15;;;;;;;14.25;10.10;;;;;;;18.16;100.00;100733.63;3598522;39;20048;-61
2021/05/13 10:10:41;;;;;;;13.30;9.15;;;;;;;18.41;100.00;100725.13;3587962;39;20044;-63
2021/05/13 10:13:09;;;;;;;14.48;9.82;;;;;;;18.62;100.00;100723.50;3590283;39;20046;-61
2021/05/13 10:15:39;;;;;;;13.55;9.40;;;;;;;18.34;100.00;100725.06;3590049;39;20040;-60
2021/05/13 10:18:28;;;;;;;13.90;9.90;;;;;;;18.45;100.00;100721.00;3590623;39;20165;-64
2021/05/13 10:20:56;;;;;;;;;;;;;;;18.02;100.00;100715.41;3588015;39;20052;-60
2021/05/13 10:23:25;;;;;;;11.65;8.50;;;;;;;18.49;100.00;100719.59;3590338;39;20275;-59
2021/05/13 10:25:50;;;;;;;14.90;9.70;;;;;;;18.09;100.00;100713.63;3588888;39;20044;-61
2021/05/13 10:28:29;;;;;;;16.38;9.60;;;;;;;17.98;100.00;100714.13;3618664;22;20058;-60
2021/05/13 10:31:00;;;;;;;11.20;8.88;;;;;;;18.51;100.00;100714.78;3594936;39;20156;-61
2021/05/13 10:33:43;;;;;;;12.63;8.32;;;;;;;18.46;100.00;100705.47;3596102;39;20044;-62
2021/05/13 10:36:09;;;;;;;14.07;8.27;;;;;;;18.39;100.00;100710.88;3596023;39;20052;-61
2021/05/13 10:38:45;;;;;;;13.18;9.07;;;;;;;17.70;100.00;100701.13;3596071;39;20306;-60
2021/05/13 10:41:35;;;;;;;12.45;8.75;;;;;;;17.57;100.00;100692.75;3595728;39;20433;-60
2021/05/13 10:44:35;;;;;;;13.25;9.02;;;;;;;17.32;100.00;100693.84;3596790;39;20052;-60
2021/05/13 10:47:02;;;;;;;12.80;8.70;;;;;;;16.99;100.00;100702.28;3606194;39;20054;-63
2021/05/13 10:49:28;;;;;;;14.38;9.30;;;;;;;16.72;100.00;100698.19;3606010;39;20052;-60
2021/05/13 10:51:55;;;;;;;13.30;9.30;;;;;;;16.42;100.00;100700.78;3607048;39;20384;-60
2021/05/13 10:54:44;;;;;;;14.65;9.15;;;;;;;16.65;100.00;100691.78;3604965;39;20107;-60
2021/05/13 10:57:13;;;;;;;12.68;7.85;;;;;;;16.84;100.00;100692.34;3604968;39;20380;-60
2021/05/13 10:59:39;;;;;;;11.45;7.90;;;;;;;16.79;100.00;100693.75;3606035;39;20084;-60
2021/05/13 11:02:05;;;;;;;11.82;8.70;;;;;;;16.98;100.00;100703.31;3605542;39;20043;-60
2021/05/13 11:04:35;;;;;;;9.13;7.47;;;;;;;16.85;100.00;100696.78;3605936;39;20382;-59
2021/05/13 11:07:04;;;;;;;10.10;7.15;;;;;;;16.79;100.00;100692.91;3606441;39;20091;-61
2021/05/13 11:09:49;;;;;;;13.50;7.72;;;;;;;16.69;100.00;100698.56;3605976;39;20044;-60
2021/05/13 11:12:16;;;;;;;9.20;6.55;;;;;;;16.65;100.00;100691.78;3605074;39;20050;-60
2021/05/13 11:15:18;;;;;;;14.10;7.70;;;;;;;16.48;100.00;100691.06;3606766;39;20036;-64
2021/05/13 11:18:09;;;;;;;13.20;7.80;;;;;;;16.53;100.00;100687.81;3605995;39;20040;-60
2021/05/13 11:20:38;;;;;;;13.02;7.90;;;;;;;16.61;100.00;100687.78;3605875;39;20095;-59
2021/05/13 11:23:06;;;;;;;10.60;6.90;;;;;;;16.50;100.00;100688.16;3604561;39;20059;-60